sensor_id;sensor_type;location;lat;lon;timestamp;noise_LAeq;noise_LA_min;noise_LA_max;noise_LA01;noise_LA95
82733;Laerm;72790;51.538;5.968;2023-12-20T00:02:00;35.35;31.43;52.83;;
82733;Laerm;72790;51.538;5.968;2023-12-20T00:06:00;40.29;31.39;63.93;;
82733;Laerm;72790;51.538;5.968;2023-12-20T00:10:00;32.41;31.06;40.45;;
82733;Laerm;72790;51.538;5.968;2023-12-20T00:14:00;31.92;31.06;37.32;;
82733;Laerm;72790;51.538;5.968;2023-12-20T00:18:00;32.3;31.03;37.5;;
82733;Laerm;72790;51.538;5.968;2023-12-20T00:22:00;32.51;31.11;40.73;;
82733;Laerm;72790;51.538;5.968;2023-12-20T00:26:00;32.38;31.21;38.56;;
82733;Laerm;72790;51.538;5.968;2023-12-20T00:30:00;32.15;31.16;37.84;;
82733;Laerm;72790;51.538;5.968;2023-12-20T00:34:01;32.11;31.15;38.66;;
82733;Laerm;72790;51.538;5.968;2023-12-20T00:38:01;33;31.05;56.13;;
82733;Laerm;72790;51.538;5.968;2023-12-20T00:42:00;32.4;31.29;38.29;;
82733;Laerm;72790;51.538;5.968;2023-12-20T00:46:00;32.07;31.15;35.57;;
82733;Laerm;72790;51.538;5.968;2023-12-20T00:50:01;32.95;31.39;41.31;;
82733;Laerm;72790;51.538;5.968;2023-12-20T00:54:00;32.5;31.23;41.28;;
82733;Laerm;72790;51.538;5.968;2023-12-20T00:58:00;32.04;31.13;46;;
82733;Laerm;72790;51.538;5.968;2023-12-20T01:02:01;32.82;31.13;45.32;;
82733;Laerm;72790;51.538;5.968;2023-12-20T01:06:01;32.42;31.11;39.04;;
82733;Laerm;72790;51.538;5.968;2023-12-20T01:10:01;33.73;31.36;52.9;;
82733;Laerm;72790;51.538;5.968;2023-12-20T01:14:00;32.44;31.2;42.8;;
82733;Laerm;72790;51.538;5.968;2023-12-20T01:18:00;32.39;31;43.74;;
82733;Laerm;72790;51.538;5.968;2023-12-20T01:22:01;32.01;31.03;40.85;;
82733;Laerm;72790;51.538;5.968;2023-12-20T01:26:01;31.99;31.03;35.88;;
82733;Laerm;72790;51.538;5.968;2023-12-20T01:30:01;32.3;31.07;51.94;;
82733;Laerm;72790;51.538;5.968;2023-12-20T01:34:00;32.5;31.26;42.4;;
82733;Laerm;72790;51.538;5.968;2023-12-20T01:38:01;32.22;31.02;37.75;;
82733;Laerm;72790;51.538;5.968;2023-12-20T01:42:01;32.22;31.11;42.01;;
82733;Laerm;72790;51.538;5.968;2023-12-20T01:46:01;32.67;31.15;47.28;;
82733;Laerm;72790;51.538;5.968;2023-12-20T01:50:01;32.29;31.08;39.19;;
82733;Laerm;72790;51.538;5.968;2023-12-20T01:54:01;32.27;31.17;37.58;;
82733;Laerm;72790;51.538;5.968;2023-12-20T01:58:01;32.39;31.18;41.61;;
82733;Laerm;72790;51.538;5.968;2023-12-20T02:02:01;32.64;31.25;43.14;;
82733;Laerm;72790;51.538;5.968;2023-12-20T02:06:01;32.37;31.17;40.27;;
82733;Laerm;72790;51.538;5.968;2023-12-20T02:10:01;32.32;31.19;51.01;;
82733;Laerm;72790;51.538;5.968;2023-12-20T02:14:01;32.23;31.21;39.14;;
82733;Laerm;72790;51.538;5.968;2023-12-20T02:18:01;32.43;30.98;42.1;;
82733;Laerm;72790;51.538;5.968;2023-12-20T02:22:06;32.38;31.19;39.71;;
82733;Laerm;72790;51.538;5.968;2023-12-20T02:26:01;32.7;31.42;41.85;;
82733;Laerm;72790;51.538;5.968;2023-12-20T02:30:01;32.6;31.3;44.72;;
82733;Laerm;72790;51.538;5.968;2023-12-20T02:34:01;32.63;31.28;42.29;;
82733;Laerm;72790;51.538;5.968;2023-12-20T02:38:01;32.68;31.36;44.96;;
82733;Laerm;72790;51.538;5.968;2023-12-20T02:42:01;32.25;31.32;40.11;;
82733;Laerm;72790;51.538;5.968;2023-12-20T02:46:01;37.18;31.47;55.58;;
82733;Laerm;72790;51.538;5.968;2023-12-20T02:50:01;32.8;31.38;43.67;;
82733;Laerm;72790;51.538;5.968;2023-12-20T02:54:01;34.05;31.36;51.21;;
82733;Laerm;72790;51.538;5.968;2023-12-20T02:58:01;33.53;31.17;40.8;;
82733;Laerm;72790;51.538;5.968;2023-12-20T03:02:01;33.08;31.4;42.29;;
82733;Laerm;72790;51.538;5.968;2023-12-20T03:06:01;33.13;31.49;39.67;;
82733;Laerm;72790;51.538;5.968;2023-12-20T03:10:01;33.43;31.59;48.89;;
82733;Laerm;72790;51.538;5.968;2023-12-20T03:14:01;32.82;31.48;43.06;;
82733;Laerm;72790;51.538;5.968;2023-12-20T03:18:01;33.1;31.42;45.4;;
82733;Laerm;72790;51.538;5.968;2023-12-20T03:22:01;33.41;31.65;42.7;;
82733;Laerm;72790;51.538;5.968;2023-12-20T03:26:01;33.95;31.36;46.43;;
82733;Laerm;72790;51.538;5.968;2023-12-20T03:30:01;34.2;31.72;56.63;;
82733;Laerm;72790;51.538;5.968;2023-12-20T03:34:01;35.15;31.75;59.16;;
82733;Laerm;72790;51.538;5.968;2023-12-20T03:38:01;34.81;31.66;49.28;;
82733;Laerm;72790;51.538;5.968;2023-12-20T03:42:01;33.2;31.79;44.89;;
82733;Laerm;72790;51.538;5.968;2023-12-20T03:46:02;33.86;31.3;42.98;;
82733;Laerm;72790;51.538;5.968;2023-12-20T03:50:02;33.6;31.57;45.3;;
82733;Laerm;72790;51.538;5.968;2023-12-20T03:54:01;32.72;31.47;44.43;;
82733;Laerm;72790;51.538;5.968;2023-12-20T03:58:01;34.75;31.59;50.36;;
82733;Laerm;72790;51.538;5.968;2023-12-20T04:02:01;33.1;31.58;39.99;;
82733;Laerm;72790;51.538;5.968;2023-12-20T04:06:01;34.47;31.72;47.87;;
82733;Laerm;72790;51.538;5.968;2023-12-20T04:10:01;34.51;31.6;49.22;;
82733;Laerm;72790;51.538;5.968;2023-12-20T04:14:01;37.34;31.85;50.12;;
82733;Laerm;72790;51.538;5.968;2023-12-20T04:18:01;34.36;32.16;41.62;;
82733;Laerm;72790;51.538;5.968;2023-12-20T04:22:02;34.07;32.27;49.93;;
82733;Laerm;72790;51.538;5.968;2023-12-20T04:26:01;35.41;32.71;55.28;;
82733;Laerm;72790;51.538;5.968;2023-12-20T04:30:01;36.81;32.5;51.2;;
82733;Laerm;72790;51.538;5.968;2023-12-20T04:34:01;35.2;32.89;47.76;;
82733;Laerm;72790;51.538;5.968;2023-12-20T04:38:01;36.43;33.22;47.89;;
82733;Laerm;72790;51.538;5.968;2023-12-20T04:42:01;35.58;33.12;46.84;;
82733;Laerm;72790;51.538;5.968;2023-12-20T04:46:01;38.69;33.45;57.77;;
82733;Laerm;72790;51.538;5.968;2023-12-20T04:50:01;35.15;32.67;44.84;;
82733;Laerm;72790;51.538;5.968;2023-12-20T04:54:01;37.37;32.86;55.88;;
82733;Laerm;72790;51.538;5.968;2023-12-20T04:58:01;39.83;34.23;56.64;;
82733;Laerm;72790;51.538;5.968;2023-12-20T05:02:01;35.81;33.09;50.69;;
82733;Laerm;72790;51.538;5.968;2023-12-20T05:06:01;37.1;33.55;47.48;;
82733;Laerm;72790;51.538;5.968;2023-12-20T05:10:01;40.1;33.59;55.9;;
82733;Laerm;72790;51.538;5.968;2023-12-20T05:14:01;36.34;33.66;45.35;;
82733;Laerm;72790;51.538;5.968;2023-12-20T05:18:01;38.53;33.47;56.51;;
82733;Laerm;72790;51.538;5.968;2023-12-20T05:22:01;38.01;33.64;50.93;;
82733;Laerm;72790;51.538;5.968;2023-12-20T05:26:01;36.73;33.76;46.26;;
82733;Laerm;72790;51.538;5.968;2023-12-20T05:30:01;36.54;34.07;47.61;;
82733;Laerm;72790;51.538;5.968;2023-12-20T05:34:01;37.26;34.32;51.79;;
82733;Laerm;72790;51.538;5.968;2023-12-20T05:38:01;38.63;34.13;54.94;;
82733;Laerm;72790;51.538;5.968;2023-12-20T05:42:01;37.89;34.8;48.64;;
82733;Laerm;72790;51.538;5.968;2023-12-20T05:46:01;38.35;35.13;50.71;;
82733;Laerm;72790;51.538;5.968;2023-12-20T05:50:01;38.2;34.87;52.48;;
82733;Laerm;72790;51.538;5.968;2023-12-20T05:54:01;39.34;35.64;50.17;;
82733;Laerm;72790;51.538;5.968;2023-12-20T05:58:01;42.06;35.26;62.87;;
82733;Laerm;72790;51.538;5.968;2023-12-20T06:02:02;41.1;35.25;58.26;;
82733;Laerm;72790;51.538;5.968;2023-12-20T06:06:04;39.55;34.63;53.24;;
82733;Laerm;72790;51.538;5.968;2023-12-20T06:10:01;38.86;35.62;48.97;;
82733;Laerm;72790;51.538;5.968;2023-12-20T06:14:01;38.81;35.89;47.57;;
82733;Laerm;72790;51.538;5.968;2023-12-20T06:18:01;38.85;35.55;48.87;;
82733;Laerm;72790;51.538;5.968;2023-12-20T06:22:01;40.55;36.19;55.43;;
82733;Laerm;72790;51.538;5.968;2023-12-20T06:26:01;39.76;36.45;51.33;;
82733;Laerm;72790;51.538;5.968;2023-12-20T06:30:01;40.68;35.9;56.95;;
82733;Laerm;72790;51.538;5.968;2023-12-20T06:34:01;43.49;36.63;56.24;;
82733;Laerm;72790;51.538;5.968;2023-12-20T06:38:01;43.43;37.15;55.3;;
82733;Laerm;72790;51.538;5.968;2023-12-20T06:42:01;41.55;36.89;54.68;;
82733;Laerm;72790;51.538;5.968;2023-12-20T06:46:01;40.22;36.32;54.28;;
82733;Laerm;72790;51.538;5.968;2023-12-20T06:50:01;41.68;37.37;56.28;;
82733;Laerm;72790;51.538;5.968;2023-12-20T06:54:01;42.13;37.94;59.42;;
82733;Laerm;72790;51.538;5.968;2023-12-20T06:58:01;42.59;37.84;61.43;;
82733;Laerm;72790;51.538;5.968;2023-12-20T07:02:02;44.49;37.19;60.16;;
82733;Laerm;72790;51.538;5.968;2023-12-20T07:06:01;47.76;37.44;66.24;;
82733;Laerm;72790;51.538;5.968;2023-12-20T07:10:01;42.47;37.09;64.88;;
82733;Laerm;72790;51.538;5.968;2023-12-20T07:14:01;42.94;37.38;60.15;;
82733;Laerm;72790;51.538;5.968;2023-12-20T07:18:01;42.24;38.1;56.93;;
82733;Laerm;72790;51.538;5.968;2023-12-20T07:22:01;42.71;38.11;60.02;;
82733;Laerm;72790;51.538;5.968;2023-12-20T07:26:01;45.14;37.32;61.75;;
82733;Laerm;72790;51.538;5.968;2023-12-20T07:30:01;41.92;36.79;58.44;;
82733;Laerm;72790;51.538;5.968;2023-12-20T07:34:01;39.99;36.18;49.5;;
82733;Laerm;72790;51.538;5.968;2023-12-20T07:38:01;41.63;36.2;63.1;;
82733;Laerm;72790;51.538;5.968;2023-12-20T07:42:01;44.68;37.76;59.28;;
82733;Laerm;72790;51.538;5.968;2023-12-20T07:46:03;44.06;38.8;59.06;;
82733;Laerm;72790;51.538;5.968;2023-12-20T07:50:01;45.01;39.11;57.08;;
82733;Laerm;72790;51.538;5.968;2023-12-20T07:54:01;43.51;37.79;55.93;;
82733;Laerm;72790;51.538;5.968;2023-12-20T07:58:01;43.94;37.94;61.97;;
82733;Laerm;72790;51.538;5.968;2023-12-20T08:02:01;43.95;36.93;57.48;;
82733;Laerm;72790;51.538;5.968;2023-12-20T08:06:01;44.72;37.31;61.78;;
82733;Laerm;72790;51.538;5.968;2023-12-20T08:10:01;43.18;36.91;62.12;;
82733;Laerm;72790;51.538;5.968;2023-12-20T08:14:01;42.07;37.2;56.85;;
82733;Laerm;72790;51.538;5.968;2023-12-20T08:18:01;42.58;36.93;57.11;;
82733;Laerm;72790;51.538;5.968;2023-12-20T08:22:01;42.32;37.64;61.19;;
82733;Laerm;72790;51.538;5.968;2023-12-20T08:26:03;40.9;36.29;52.57;;
82733;Laerm;72790;51.538;5.968;2023-12-20T08:30:01;47.22;36.16;66.76;;
82733;Laerm;72790;51.538;5.968;2023-12-20T08:34:01;41.19;36.25;53.36;;
82733;Laerm;72790;51.538;5.968;2023-12-20T08:38:01;41.1;35.14;55.52;;
82733;Laerm;72790;51.538;5.968;2023-12-20T08:42:01;43.74;37.48;67.1;;
82733;Laerm;72790;51.538;5.968;2023-12-20T08:46:01;43.72;37.29;59.19;;
82733;Laerm;72790;51.538;5.968;2023-12-20T08:50:02;45.07;37.95;65.49;;
82733;Laerm;72790;51.538;5.968;2023-12-20T08:54:01;45.13;36.61;62.63;;
82733;Laerm;72790;51.538;5.968;2023-12-20T08:58:01;47.44;37.78;72.07;;
82733;Laerm;72790;51.538;5.968;2023-12-20T09:02:01;45.14;38.37;65.76;;
82733;Laerm;72790;51.538;5.968;2023-12-20T09:06:01;41.26;36.65;53.24;;
82733;Laerm;72790;51.538;5.968;2023-12-20T09:10:01;42.93;37.34;52.8;;
82733;Laerm;72790;51.538;5.968;2023-12-20T09:14:01;43.76;37.57;58.07;;
82733;Laerm;72790;51.538;5.968;2023-12-20T09:18:02;45.68;37.26;61.79;;
82733;Laerm;72790;51.538;5.968;2023-12-20T09:22:01;45.82;37.54;61.58;;
82733;Laerm;72790;51.538;5.968;2023-12-20T09:26:01;43.81;37.2;60.49;;
82733;Laerm;72790;51.538;5.968;2023-12-20T09:30:02;42.29;37.26;57.63;;
82733;Laerm;72790;51.538;5.968;2023-12-20T09:34:01;42.12;37.76;55.49;;
82733;Laerm;72790;51.538;5.968;2023-12-20T09:38:01;42.44;37.17;64.9;;
82733;Laerm;72790;51.538;5.968;2023-12-20T09:42:02;46.04;37.25;63.09;;
82733;Laerm;72790;51.538;5.968;2023-12-20T09:46:01;43.07;36.84;58.45;;
82733;Laerm;72790;51.538;5.968;2023-12-20T09:50:01;44.61;38.03;57.61;;
82733;Laerm;72790;51.538;5.968;2023-12-20T09:54:01;43.4;36.56;63.78;;
82733;Laerm;72790;51.538;5.968;2023-12-20T09:58:01;43.75;37.45;60.61;;
82733;Laerm;72790;51.538;5.968;2023-12-20T10:02:04;45.69;37.95;71.65;;
82733;Laerm;72790;51.538;5.968;2023-12-20T10:06:01;43.33;37.84;61.56;;
82733;Laerm;72790;51.538;5.968;2023-12-20T10:10:02;44.75;38.58;62.08;;
82733;Laerm;72790;51.538;5.968;2023-12-20T10:14:01;42.4;37.49;62.16;;
82733;Laerm;72790;51.538;5.968;2023-12-20T10:18:02;42.12;37.26;60.15;;
82733;Laerm;72790;51.538;5.968;2023-12-20T10:22:03;41.69;37.1;57.43;;
82733;Laerm;72790;51.538;5.968;2023-12-20T10:26:01;40.72;36.87;56.85;;
82733;Laerm;72790;51.538;5.968;2023-12-20T10:30:01;41.76;36.72;59.33;;
82733;Laerm;72790;51.538;5.968;2023-12-20T10:34:02;41.12;36.61;60.49;;
82733;Laerm;72790;51.538;5.968;2023-12-20T10:38:03;42.21;36.72;59.93;;
82733;Laerm;72790;51.538;5.968;2023-12-20T10:42:02;42.09;37.02;58.68;;
82733;Laerm;72790;51.538;5.968;2023-12-20T10:46:03;43.06;36.41;59.86;;
82733;Laerm;72790;51.538;5.968;2023-12-20T10:50:02;42.11;36.43;55.72;;
82733;Laerm;72790;51.538;5.968;2023-12-20T10:54:01;47.04;36.89;66.87;;
82733;Laerm;72790;51.538;5.968;2023-12-20T10:58:02;42.38;36.96;57.14;;
82733;Laerm;72790;51.538;5.968;2023-12-20T11:02:02;44.25;37.52;62.12;;
82733;Laerm;72790;51.538;5.968;2023-12-20T11:06:02;42.18;36.88;63.2;;
82733;Laerm;72790;51.538;5.968;2023-12-20T11:10:03;45.76;36.31;65.32;;
82733;Laerm;72790;51.538;5.968;2023-12-20T11:14:03;42.21;36.22;55.87;;
82733;Laerm;72790;51.538;5.968;2023-12-20T11:18:02;43.95;37.18;61.13;;
82733;Laerm;72790;51.538;5.968;2023-12-20T11:22:03;46.18;37.21;64.22;;
82733;Laerm;72790;51.538;5.968;2023-12-20T11:26:02;44.14;37.45;59.14;;
82733;Laerm;72790;51.538;5.968;2023-12-20T11:30:02;42.99;37.03;62.37;;
82733;Laerm;72790;51.538;5.968;2023-12-20T11:34:12;43.75;37.2;59.19;;
82733;Laerm;72790;51.538;5.968;2023-12-20T11:38:02;42.95;36.27;60.23;;
82733;Laerm;72790;51.538;5.968;2023-12-20T11:42:05;40.55;36.24;57.93;;
82733;Laerm;72790;51.538;5.968;2023-12-20T11:46:03;40.57;35.81;54.19;;
82733;Laerm;72790;51.538;5.968;2023-12-20T11:50:02;45.58;36.42;66.55;;
82733;Laerm;72790;51.538;5.968;2023-12-20T11:54:02;44.97;37.02;63.86;;
82733;Laerm;72790;51.538;5.968;2023-12-20T11:58:02;41.98;36.75;61.28;;
82733;Laerm;72790;51.538;5.968;2023-12-20T12:02:02;40.96;36.41;51.37;;
82733;Laerm;72790;51.538;5.968;2023-12-20T12:06:02;39.65;35.62;50.63;;
82733;Laerm;72790;51.538;5.968;2023-12-20T12:10:02;42.22;36.45;61.21;;
82733;Laerm;72790;51.538;5.968;2023-12-20T12:14:02;45.19;37.74;63.5;;
82733;Laerm;72790;51.538;5.968;2023-12-20T12:18:02;42.36;36.09;56.25;;
82733;Laerm;72790;51.538;5.968;2023-12-20T12:22:05;43.34;36.95;61.45;;
82733;Laerm;72790;51.538;5.968;2023-12-20T12:26:03;42.81;37.26;62.86;;
82733;Laerm;72790;51.538;5.968;2023-12-20T12:30:02;41.55;36.03;57.11;;
82733;Laerm;72790;51.538;5.968;2023-12-20T12:34:02;49.98;37.3;72.46;;
82733;Laerm;72790;51.538;5.968;2023-12-20T12:38:02;49.16;40.14;68.41;;
82733;Laerm;72790;51.538;5.968;2023-12-20T12:42:02;51.67;37.63;65.21;;
82733;Laerm;72790;51.538;5.968;2023-12-20T12:46:02;63.82;38.67;75.53;;
82733;Laerm;72790;51.538;5.968;2023-12-20T12:50:02;52.5;37.88;64.23;;
82733;Laerm;72790;51.538;5.968;2023-12-20T12:54:02;47.69;38.26;65.32;;
82733;Laerm;72790;51.538;5.968;2023-12-20T12:58:02;51.14;38.61;69.38;;
82733;Laerm;72790;51.538;5.968;2023-12-20T13:02:02;61.72;39.46;73.44;;
82733;Laerm;72790;51.538;5.968;2023-12-20T13:06:02;70.31;44.23;83.2;;
82733;Laerm;72790;51.538;5.968;2023-12-20T13:10:02;58.94;39.01;75.92;;
82733;Laerm;72790;51.538;5.968;2023-12-20T13:14:02;48.36;37.76;67.3;;
82733;Laerm;72790;51.538;5.968;2023-12-20T13:18:02;56.85;39.35;76.45;;
82733;Laerm;72790;51.538;5.968;2023-12-20T13:22:02;47.51;37.94;64.5;;
82733;Laerm;72790;51.538;5.968;2023-12-20T13:26:02;47.17;38.52;59.98;;
82733;Laerm;72790;51.538;5.968;2023-12-20T13:30:02;44.36;38.21;58.04;;
82733;Laerm;72790;51.538;5.968;2023-12-20T13:34:02;47.5;37.39;68.25;;
82733;Laerm;72790;51.538;5.968;2023-12-20T13:38:02;42.81;37.1;60.29;;
82733;Laerm;72790;51.538;5.968;2023-12-20T13:42:02;45.25;38.41;60.93;;
82733;Laerm;72790;51.538;5.968;2023-12-20T13:46:02;43.22;36.74;62.53;;
82733;Laerm;72790;51.538;5.968;2023-12-20T13:50:02;44.29;36.88;65.87;;
82733;Laerm;72790;51.538;5.968;2023-12-20T13:54:02;47.61;37.48;67.81;;
82733;Laerm;72790;51.538;5.968;2023-12-20T13:58:02;43.21;36.67;72.18;;
82733;Laerm;72790;51.538;5.968;2023-12-20T14:02:02;40.73;36.32;56.1;;
82733;Laerm;72790;51.538;5.968;2023-12-20T14:06:02;40.82;36.46;54.83;;
82733;Laerm;72790;51.538;5.968;2023-12-20T14:10:02;41.65;36.79;62.07;;
82733;Laerm;72790;51.538;5.968;2023-12-20T14:14:02;42.62;36.22;58.84;;
82733;Laerm;72790;51.538;5.968;2023-12-20T14:18:03;45.19;36.36;60.06;;
82733;Laerm;72790;51.538;5.968;2023-12-20T14:22:02;42.33;37.02;66.55;;
82733;Laerm;72790;51.538;5.968;2023-12-20T14:26:02;51.28;37.58;65.04;;
82733;Laerm;72790;51.538;5.968;2023-12-20T14:30:02;42.92;36.66;56.78;;
82733;Laerm;72790;51.538;5.968;2023-12-20T14:34:02;43.64;37.21;57.26;;
82733;Laerm;72790;51.538;5.968;2023-12-20T14:38:02;42.03;37.14;57.53;;
82733;Laerm;72790;51.538;5.968;2023-12-20T14:42:02;45.88;36.4;67.88;;
82733;Laerm;72790;51.538;5.968;2023-12-20T14:46:02;42.57;36.79;66.89;;
82733;Laerm;72790;51.538;5.968;2023-12-20T14:50:02;42.13;37.51;61.67;;
82733;Laerm;72790;51.538;5.968;2023-12-20T14:54:02;41.53;37.02;54.37;;
82733;Laerm;72790;51.538;5.968;2023-12-20T14:58:02;46.03;37.77;69.02;;
82733;Laerm;72790;51.538;5.968;2023-12-20T15:02:02;41.91;37.12;55.45;;
82733;Laerm;72790;51.538;5.968;2023-12-20T15:06:02;43.22;37.24;55.47;;
82733;Laerm;72790;51.538;5.968;2023-12-20T15:10:02;41.11;36.89;56.55;;
82733;Laerm;72790;51.538;5.968;2023-12-20T15:14:02;49.2;37.21;69.92;;
82733;Laerm;72790;51.538;5.968;2023-12-20T15:18:02;43.31;36.99;54.83;;
82733;Laerm;72790;51.538;5.968;2023-12-20T15:22:02;42.09;37.01;68.53;;
82733;Laerm;72790;51.538;5.968;2023-12-20T15:26:02;44.64;37.06;64.26;;
82733;Laerm;72790;51.538;5.968;2023-12-20T15:30:02;47.64;37.47;61.4;;
82733;Laerm;72790;51.538;5.968;2023-12-20T15:34:02;50.52;36.24;72.79;;
82733;Laerm;72790;51.538;5.968;2023-12-20T15:38:02;41.53;37.31;53.12;;
82733;Laerm;72790;51.538;5.968;2023-12-20T15:42:02;48.28;37.81;76.41;;
82733;Laerm;72790;51.538;5.968;2023-12-20T15:46:02;48.55;37.09;75.3;;
82733;Laerm;72790;51.538;5.968;2023-12-20T15:50:02;50;37.35;78.47;;
82733;Laerm;72790;51.538;5.968;2023-12-20T15:54:03;51.39;36.51;83.2;;
82733;Laerm;72790;51.538;5.968;2023-12-20T15:58:02;40.81;36.4;62.46;;
82733;Laerm;72790;51.538;5.968;2023-12-20T16:02:02;52.91;36.39;84.85;;
82733;Laerm;72790;51.538;5.968;2023-12-20T16:06:02;44.96;36.36;73.92;;
82733;Laerm;72790;51.538;5.968;2023-12-20T16:10:02;45.79;36.85;74.51;;
82733;Laerm;72790;51.538;5.968;2023-12-20T16:14:02;48.6;38.18;77.15;;
82733;Laerm;72790;51.538;5.968;2023-12-20T16:18:02;48.27;37.41;76.77;;
82733;Laerm;72790;51.538;5.968;2023-12-20T16:22:02;52.9;37.76;82.07;;
82733;Laerm;72790;51.538;5.968;2023-12-20T16:26:02;51.68;38.21;77.95;;
82733;Laerm;72790;51.538;5.968;2023-12-20T16:30:02;50.95;37.85;81.26;;
82733;Laerm;72790;51.538;5.968;2023-12-20T16:34:02;44.94;37.12;66.71;;
82733;Laerm;72790;51.538;5.968;2023-12-20T16:38:02;44;36.78;70.38;;
82733;Laerm;72790;51.538;5.968;2023-12-20T16:42:02;45.45;37.15;69.04;;
82733;Laerm;72790;51.538;5.968;2023-12-20T16:46:02;48.13;37.58;78.33;;
82733;Laerm;72790;51.538;5.968;2023-12-20T16:50:02;49.75;37.49;79.2;;
82733;Laerm;72790;51.538;5.968;2023-12-20T16:54:02;58.21;37.57;87.86;;
82733;Laerm;72790;51.538;5.968;2023-12-20T16:58:02;47.23;36.97;74.6;;
82733;Laerm;72790;51.538;5.968;2023-12-20T17:02:02;49.52;37.19;80.82;;
82733;Laerm;72790;51.538;5.968;2023-12-20T17:06:02;44.39;36.82;62.51;;
82733;Laerm;72790;51.538;5.968;2023-12-20T17:10:02;41.2;35.85;60.76;;
82733;Laerm;72790;51.538;5.968;2023-12-20T17:14:02;40.68;35.77;56.11;;
82733;Laerm;72790;51.538;5.968;2023-12-20T17:18:02;40.62;34.95;59.13;;
82733;Laerm;72790;51.538;5.968;2023-12-20T17:22:02;42.53;35.62;59.77;;
82733;Laerm;72790;51.538;5.968;2023-12-20T17:26:02;40.91;35.76;56.92;;
82733;Laerm;72790;51.538;5.968;2023-12-20T17:30:02;43.52;36.36;60.15;;
82733;Laerm;72790;51.538;5.968;2023-12-20T17:34:02;45.09;36.43;63.57;;
82733;Laerm;72790;51.538;5.968;2023-12-20T17:38:02;45.79;36.76;69.67;;
82733;Laerm;72790;51.538;5.968;2023-12-20T17:42:02;43.89;36.6;62.53;;
82733;Laerm;72790;51.538;5.968;2023-12-20T17:46:02;44.23;36.31;59.8;;
82733;Laerm;72790;51.538;5.968;2023-12-20T17:50:02;51.14;36.9;71.37;;
82733;Laerm;72790;51.538;5.968;2023-12-20T17:54:02;46.81;36.08;64.46;;
82733;Laerm;72790;51.538;5.968;2023-12-20T17:58:02;43.16;37.02;67.3;;
82733;Laerm;72790;51.538;5.968;2023-12-20T18:02:02;42.77;36.27;59.08;;
82733;Laerm;72790;51.538;5.968;2023-12-20T18:06:02;45.37;36;62.32;;
82733;Laerm;72790;51.538;5.968;2023-12-20T18:10:02;45.57;35.65;65.52;;
82733;Laerm;72790;51.538;5.968;2023-12-20T18:14:02;45.86;36.56;61.51;;
82733;Laerm;72790;51.538;5.968;2023-12-20T18:18:02;40.47;36.26;55.43;;
82733;Laerm;72790;51.538;5.968;2023-12-20T18:22:02;46.29;37.14;70.47;;
82733;Laerm;72790;51.538;5.968;2023-12-20T18:26:02;47.42;36.95;64.43;;
82733;Laerm;72790;51.538;5.968;2023-12-20T18:30:02;44.45;36.83;60.1;;
82733;Laerm;72790;51.538;5.968;2023-12-20T18:34:02;42.18;35.95;60.21;;
82733;Laerm;72790;51.538;5.968;2023-12-20T18:38:02;45.36;36.48;68.34;;
82733;Laerm;72790;51.538;5.968;2023-12-20T18:42:02;43.76;36.42;63.62;;
82733;Laerm;72790;51.538;5.968;2023-12-20T18:46:02;42.88;36.76;56.68;;
82733;Laerm;72790;51.538;5.968;2023-12-20T18:50:02;43.55;36.31;63.29;;
82733;Laerm;72790;51.538;5.968;2023-12-20T18:54:03;48.56;37.13;68.98;;
82733;Laerm;72790;51.538;5.968;2023-12-20T18:58:02;41.14;35.48;54.3;;
82733;Laerm;72790;51.538;5.968;2023-12-20T19:02:02;43.88;36.01;58.09;;
82733;Laerm;72790;51.538;5.968;2023-12-20T19:06:02;42.88;35.83;61.31;;
82733;Laerm;72790;51.538;5.968;2023-12-20T19:10:02;45.74;35.79;67.84;;
82733;Laerm;72790;51.538;5.968;2023-12-20T19:14:02;47.88;36.5;69.14;;
82733;Laerm;72790;51.538;5.968;2023-12-20T19:18:02;44.17;36.23;63.41;;
82733;Laerm;72790;51.538;5.968;2023-12-20T19:22:03;47.65;36.75;68.31;;
82733;Laerm;72790;51.538;5.968;2023-12-20T19:26:02;49.68;37.59;71.21;;
82733;Laerm;72790;51.538;5.968;2023-12-20T19:30:03;45.39;37.11;66.11;;
82733;Laerm;72790;51.538;5.968;2023-12-20T19:34:02;43.8;35.45;71.96;;
82733;Laerm;72790;51.538;5.968;2023-12-20T19:38:02;45.37;36.86;64.25;;
82733;Laerm;72790;51.538;5.968;2023-12-20T19:42:03;45.65;36.47;63.51;;
82733;Laerm;72790;51.538;5.968;2023-12-20T19:46:02;44.17;35.31;62.5;;
82733;Laerm;72790;51.538;5.968;2023-12-20T19:50:03;41.96;35.58;57.09;;
82733;Laerm;72790;51.538;5.968;2023-12-20T19:54:02;41.79;34.91;61.46;;
82733;Laerm;72790;51.538;5.968;2023-12-20T19:58:03;40.68;34.2;61.26;;
82733;Laerm;72790;51.538;5.968;2023-12-20T20:02:02;45.27;35.1;64.85;;
82733;Laerm;72790;51.538;5.968;2023-12-20T20:06:02;49.62;35.02;76.12;;
82733;Laerm;72790;51.538;5.968;2023-12-20T20:10:03;48.16;35.63;70.18;;
82733;Laerm;72790;51.538;5.968;2023-12-20T20:14:02;48.7;35.68;73.38;;
82733;Laerm;72790;51.538;5.968;2023-12-20T20:18:03;41.37;35.18;56.18;;
82733;Laerm;72790;51.538;5.968;2023-12-20T20:22:02;45;36.49;67.89;;
82733;Laerm;72790;51.538;5.968;2023-12-20T20:26:02;43.34;34.91;63.47;;
82733;Laerm;72790;51.538;5.968;2023-12-20T20:30:03;39.78;34.52;55.65;;
82733;Laerm;72790;51.538;5.968;2023-12-20T20:34:02;40.33;35.04;58.82;;
82733;Laerm;72790;51.538;5.968;2023-12-20T20:38:02;40.44;35.11;57.61;;
82733;Laerm;72790;51.538;5.968;2023-12-20T20:42:03;41.9;34.88;62.78;;
82733;Laerm;72790;51.538;5.968;2023-12-20T20:46:03;37.97;34.06;51.47;;
82733;Laerm;72790;51.538;5.968;2023-12-20T20:50:03;41.3;34.67;63.11;;
82733;Laerm;72790;51.538;5.968;2023-12-20T20:54:02;41.98;35.33;64.51;;
82733;Laerm;72790;51.538;5.968;2023-12-20T20:58:02;40.7;34.46;58.28;;
82733;Laerm;72790;51.538;5.968;2023-12-20T21:02:03;41.86;34.3;63.48;;
82733;Laerm;72790;51.538;5.968;2023-12-20T21:06:02;39.19;34.74;51.75;;
82733;Laerm;72790;51.538;5.968;2023-12-20T21:10:04;48.85;35.32;71.39;;
82733;Laerm;72790;51.538;5.968;2023-12-20T21:14:02;41.16;34.77;61.06;;
82733;Laerm;72790;51.538;5.968;2023-12-20T21:18:03;44.46;34.3;61.15;;
82733;Laerm;72790;51.538;5.968;2023-12-20T21:22:03;43.38;34.58;60.01;;
82733;Laerm;72790;51.538;5.968;2023-12-20T21:26:03;42.89;35.24;58.66;;
82733;Laerm;72790;51.538;5.968;2023-12-20T21:30:03;39.84;33.81;54.91;;
82733;Laerm;72790;51.538;5.968;2023-12-20T21:34:03;42.22;34.46;67;;
82733;Laerm;72790;51.538;5.968;2023-12-20T21:38:03;44.45;35.27;62.56;;
82733;Laerm;72790;51.538;5.968;2023-12-20T21:42:03;42.28;34.19;63.42;;
82733;Laerm;72790;51.538;5.968;2023-12-20T21:46:03;42.51;34.96;57.81;;
82733;Laerm;72790;51.538;5.968;2023-12-20T21:50:03;41.35;34.87;59.17;;
82733;Laerm;72790;51.538;5.968;2023-12-20T21:54:03;43.29;34.51;60.68;;
82733;Laerm;72790;51.538;5.968;2023-12-20T21:58:03;43.75;34.25;71.11;;
82733;Laerm;72790;51.538;5.968;2023-12-20T22:02:03;43.32;33.78;59.5;;
82733;Laerm;72790;51.538;5.968;2023-12-20T22:06:03;44.91;34.38;61.46;;
82733;Laerm;72790;51.538;5.968;2023-12-20T22:10:03;45.14;34.55;67.34;;
82733;Laerm;72790;51.538;5.968;2023-12-20T22:14:03;43.7;34.59;61.62;;
82733;Laerm;72790;51.538;5.968;2023-12-20T22:18:03;42.63;35.13;59.19;;
82733;Laerm;72790;51.538;5.968;2023-12-20T22:22:03;47.13;35.12;65.71;;
82733;Laerm;72790;51.538;5.968;2023-12-20T22:26:03;42.01;34.23;60.35;;
82733;Laerm;72790;51.538;5.968;2023-12-20T22:30:03;45.56;33.91;66.25;;